Latest Weather Observations for Yanco

IDN60801

Issued at 6:02 pm EDT Thursday 23 February 2017 (issued every 30 minutes, with the page automatically refreshed every 10 minutes)

About weather observations | Map of weather stations | Latest weather observations for NSW | Other Formats
Station Details ID: 074037 Name: YANCO AGRICULTURAL INSTITUTE Lat: -34.62 Lon: 146.43 Height: 164.0 m
Data from the previous 72 hours. | See also: Recent months at Yanco
Date/Time
EDT
Temp
°C
App
Temp
°C
Dew
Point
°C
Rel
Hum
%
Delta-T
°C
Wind Press
QNH
hPa
Press
MSL
hPa
Rain since
9am
mm
Dir  Spd
km/h
Gust
km/h
Spd
kts
Gust
kts
23/05:30pm 35.6 31.6 5.0 15 16.5 W 15 22 8 12 - - 0.0
23/05:00pm 36.3 32.4 5.5 15 16.8 W 15 24 8 13 - - 0.0
23/04:30pm 35.9 32.6 6.2 16 16.4 WNW 13 24 7 13 - - 0.0
23/04:00pm 35.5 30.7 4.9 15 16.5 WNW 19 30 10 16 - - 0.0
23/03:30pm 35.6 31.1 5.9 16 16.3 W 19 28 10 15 - - 0.0
23/03:00pm 34.3 31.4 6.6 18 15.2 WSW 11 22 6 12 - - 0.0
23/02:30pm 34.7 31.3 7.7 19 15.2 WNW 15 20 8 11 - - 0.0
23/02:00pm 33.2 30.1 7.2 20 14.4 NW 13 20 7 11 - - 0.0
23/01:30pm 33.2 30.5 7.2 20 14.4 WNW 11 19 6 10 - - 0.0
23/01:00pm 32.5 30.7 8.0 22 13.7 WNW 7 13 4 7 - - 0.0
23/12:30pm 31.1 29.2 7.5 23 13.0 WNW 7 15 4 8 - - 0.0
23/12:00pm 29.7 27.7 6.4 23 12.5 WNW 6 9 3 5 - - 0.0
23/11:30am 28.3 26.7 8.1 28 11.0 SW 6 9 3 5 - - 0.0
23/11:00am 27.1 25.3 8.0 30 10.4 SW 7 19 4 10 - - 0.0
23/10:30am 25.8 24.1 8.3 33 9.5 WSW 7 11 4 6 - - 0.0
23/10:00am 24.4 22.2 8.0 35 8.8 SSW 9 13 5 7 - - 0.0
23/09:30am 22.8 20.1 7.4 37 8.1 SW 11 15 6 8 - - 0.0
23/09:00am 21.4 19.4 7.3 40 7.3 SW 7 9 4 5 - - 0.0
23/08:30am 20.3 18.1 6.3 40 7.1 SW 7 9 4 5 - - 0.0
23/08:00am 19.6 17.6 6.4 42 6.7 SW 6 9 3 5 - - 0.0
23/07:30am 18.6 16.4 6.1 44 6.2 SW 7 11 4 6 - - 0.0
23/07:00am 18.9 15.8 5.7 42 6.5 SW 11 15 6 8 - - 0.0
23/06:30am 19.6 16.5 5.6 40 6.9 SW 11 13 6 7 - - 0.0
23/06:00am 21.1 19.4 7.7 42 7.0 WNW 6 7 3 4 - - 0.0
23/05:30am 21.7 19.9 7.9 41 7.2 NNW 7 9 4 5 - - 0.0
23/05:00am 23.5 21.5 7.2 35 8.5 WNW 7 11 4 6 - - 0.0
23/04:30am 25.1 21.2 7.3 32 9.4 NNE 17 20 9 11 - - 0.0
23/04:00am 25.2 21.7 7.3 32 9.5 N 15 20 8 11 - - 0.0
23/03:30am 25.6 21.6 6.8 30 9.9 NNE 17 20 9 11 - - 0.0
23/03:00am 25.9 22.2 6.5 29 10.2 NNE 15 22 8 12 - - 0.0
23/02:30am 25.6 21.4 5.8 28 10.2 N 17 20 9 11 - - 0.0
23/02:00am 26.0 21.9 4.5 25 10.9 N 15 20 8 11 - - 0.0
23/01:30am 27.1 22.5 3.6 22 11.8 NNE 17 24 9 13 - - 0.0
23/01:00am 27.2 22.5 3.0 21 12.0 NNE 17 22 9 12 - - 0.0
23/12:30am 28.4 23.5 1.8 18 13.1 NNE 17 22 9 12 - - 0.0
23/12:00am 28.0 23.9 2.2 19 12.7 NNE 13 19 7 10 - - 0.0
 
Date/Time
EDT
Temp
°C
App
Temp
°C
Dew
Point
°C
Rel
Hum
%
Delta-T
°C
Wind Press
QNH
hPa
Press
MSL
hPa
Rain since
9am
mm
Dir  Spd
km/h
Gust
km/h
Spd
kts
Gust
kts
22/11:30pm 28.4 24.4 2.6 19 12.8 NNE 13 17 7 9 - - 0.0
22/11:00pm 28.8 24.7 2.1 18 13.2 NNE 13 19 7 10 - - 0.0
22/10:30pm 29.2 25.5 2.5 18 13.3 NNE 11 15 6 8 - - 0.0
22/10:00pm 29.0 25.7 2.3 18 13.3 NNE 9 11 5 6 - - 0.0
22/09:30pm 28.7 25.5 2.8 19 13.0 NE 9 11 5 6 - - 0.0
22/09:00pm 29.4 26.8 3.4 19 13.2 NNE 6 6 3 3 - - 0.0
22/08:30pm 30.2 28.1 4.0 19 13.5 NNW 4 4 2 2 - - 0.0
22/08:00pm 31.3 28.7 3.4 17 14.3 NW 6 7 3 4 - - 0.0
22/07:30pm 33.5 30.6 2.4 14 15.9 NNW 7 13 4 7 - - 0.0
22/07:00pm 34.9 30.6 1.3 12 17.1 NNW 13 20 7 11 - - 0.0
22/06:30pm 35.3 31.1 1.6 12 17.2 NNW 13 20 7 11 - - 0.0
22/06:00pm 35.8 30.9 2.0 12 17.4 NW 17 26 9 14 - - 0.0
22/05:30pm 35.5 30.4 2.9 13 17.0 NW 19 26 10 14 - - 0.0
22/05:00pm 35.7 30.6 3.0 13 17.1 NW 19 28 10 15 - - 0.0
22/04:30pm 35.9 31.8 2.1 12 17.5 NW 13 19 7 10 - - 0.0
22/04:00pm 35.6 31.3 3.0 13 17.1 NW 15 26 8 14 - - 0.0
22/03:30pm 35.1 30.3 2.6 13 16.9 NNW 17 30 9 16 - - 0.0
22/03:00pm 35.0 30.0 3.5 14 16.6 N 19 32 10 17 - - 0.0
22/02:30pm 34.4 29.7 3.1 14 16.3 NW 17 30 9 16 - - 0.0
22/02:00pm 34.4 29.7 3.1 14 16.3 NNW 17 28 9 15 - - 0.0
22/01:30pm 33.7 28.7 3.5 15 15.8 NNW 19 30 10 16 - - 0.0
22/01:00pm 33.1 27.8 2.1 14 15.8 N 19 28 10 15 - - 0.0
22/12:30pm 32.3 27.2 3.3 16 15.0 NNE 19 28 10 15 - - 0.0
22/12:00pm 31.4 26.9 4.2 18 14.2 N 17 28 9 15 - - 0.0
22/11:30am 29.9 25.5 4.5 20 13.2 N 17 24 9 13 - - 0.0
22/11:00am 28.3 24.6 6.4 25 11.6 NNE 15 24 8 13 - - 0.0
22/10:30am 27.1 23.2 7.0 28 10.7 N 17 22 9 12 - - 0.0
22/10:00am 25.7 21.6 6.3 29 10.1 N 17 26 9 14 - - 0.0
22/09:30am 25.0 21.8 6.7 31 9.6 NNE 13 17 7 9 - - 0.0
22/09:00am 22.8 20.8 8.5 40 7.6 NE 9 15 5 8 - - 0.0
22/08:30am 19.5 18.1 10.8 57 4.8 ENE 9 13 5 7 - - 0.0
22/08:00am 17.3 15.5 10.9 66 3.5 E 11 15 6 8 - - 0.0
22/07:30am 15.7 13.0 10.5 71 2.8 E 15 19 8 10 - - 0.0
22/07:00am 15.1 11.6 10.1 72 2.6 E 19 22 10 12 - - 0.0
22/06:30am 15.1 11.8 9.7 70 2.8 E 17 22 9 12 - - 0.0
22/06:00am 15.2 11.8 9.3 68 3.1 E 17 20 9 11 - - 0.0
22/05:30am 15.9 12.1 8.9 63 3.6 E 19 20 10 11 - - 0.0
22/05:00am 15.6 12.3 7.9 60 3.9 E 15 19 8 10 - - 0.0
22/04:30am 15.7 12.1 6.7 55 4.4 E 15 19 8 10 - - 0.0
22/04:00am 16.3 12.1 5.9 50 5.1 E 17 20 9 11 - - 0.0
22/03:30am 16.9 13.1 3.9 42 6.1 ESE 13 17 7 9 - - 0.0
22/03:00am 17.8 13.9 3.3 38 6.8 ESE 13 19 7 10 - - 0.0
22/02:30am 17.6 13.8 3.9 40 6.5 E 13 15 7 8 - - 0.0
22/02:00am 17.2 13.8 2.0 36 6.9 ESE 9 11 5 6 - - 0.0
22/01:30am 18.2 14.9 2.5 35 7.2 ESE 9 13 5 7 - - 0.0
22/01:00am 18.2 15.4 2.9 36 7.1 SE 7 11 4 6 - - 0.0
22/12:30am 18.6 17.1 2.9 35 7.3 CALM 0 6 0 3 - - 0.0
22/12:00am 17.9 16.3 2.2 35 7.2 CALM 0 0 0 0 - - 0.0
 
Date/Time
EDT
Temp
°C
App
Temp
°C
Dew
Point
°C
Rel
Hum
%
Delta-T
°C
Wind Press
QNH
hPa
Press
MSL
hPa
Rain since
9am
mm
Dir  Spd
km/h
Gust
km/h
Spd
kts
Gust
kts
21/11:30pm 17.9 16.3 2.6 36 7.1 CALM 0 0 0 0 - - 0.0
21/11:00pm 20.1 17.1 2.0 30 8.4 SE 7 7 4 4 - - 0.0
21/10:30pm 20.8 17.7 1.6 28 8.9 ESE 7 9 4 5 - - 0.0
21/10:00pm 21.7 18.8 1.4 26 9.4 E 6 6 3 3 - - 0.0
21/09:30pm 22.4 19.5 1.4 25 9.8 E 6 7 3 4 - - 0.0
21/09:00pm 22.0 19.0 2.2 27 9.4 ENE 7 7 4 4 - - 0.0
21/08:30pm 22.3 19.5 1.9 26 9.6 ENE 6 7 3 4 - - 0.0
21/08:00pm 23.8 20.9 1.4 23 10.6 E 6 7 3 4 - - 0.0
21/07:30pm 26.1 23.6 1.4 20 11.8 E 4 6 2 3 - - 0.0
21/07:00pm 26.9 24.4 1.3 19 12.3 SSE 4 9 2 5 - - 0.0
21/06:30pm 27.0 24.5 1.4 19 12.4 NE 4 7 2 4 - - 0.0
21/06:00pm 27.3 23.7 0.9 18 12.7 SSE 9 20 5 11 - - 0.0
21/05:30pm 27.7 24.6 1.2 18 12.8 S 7 17 4 9 - - 0.0
21/05:00pm 27.6 24.6 1.9 19 12.6 SSW 7 17 4 9 - - 0.0
21/04:30pm 26.7 23.2 1.2 19 12.2 SSE 9 17 5 9 - - 0.0
21/04:00pm 27.1 24.0 1.5 19 12.4 S 7 20 4 11 - - 0.0
21/03:30pm 26.8 23.3 1.3 19 12.3 SE 9 19 5 10 - - 0.0
21/03:00pm 26.6 23.6 1.8 20 12.0 S 7 17 4 9 - - 0.0
21/02:30pm 26.2 22.5 2.2 21 11.7 SSE 11 19 6 10 - - 0.0
21/02:00pm 25.6 22.3 2.3 22 11.3 ESE 9 20 5 11 - - 0.0
21/01:30pm 24.9 22.1 3.0 24 10.7 SSW 7 15 4 8 - - 0.0
21/01:00pm 24.9 21.7 3.0 24 10.7 ESE 9 20 5 11 - - 0.0
21/12:30pm 24.5 21.3 3.2 25 10.4 SSW 9 20 5 11 - - 0.0
21/12:00pm 22.8 19.8 2.3 26 9.8 N 7 13 4 7 - - 0.0
21/11:30am 23.0 20.1 2.5 26 9.8 S 7 13 4 7 - - 0.0
21/11:00am 22.8 20.1 2.8 27 9.6 E 6 17 3 9 - - 0.0
21/10:30am 22.2 19.4 3.3 29 9.1 ENE 7 15 4 8 - - 0.0
21/10:00am 21.3 18.8 4.0 32 8.4 ESE 6 13 3 7 - - 0.0
21/09:30am 20.1 17.5 4.2 35 7.7 E 7 11 4 6 - - 0.0
21/09:00am 19.1 16.6 4.8 39 7.0 E 7 9 4 5 - - 0.0
21/08:30am 16.6 14.1 4.9 46 5.6 E 7 9 4 5 - - 0.0
21/08:00am 14.8 12.3 4.8 51 4.7 ESE 7 9 4 5 - - 0.0
21/07:30am 12.6 9.7 4.8 59 3.6 SE 9 11 5 6 - - 0.0
21/07:00am 10.4 7.7 5.8 73 2.1 SE 9 13 5 7 - - 0.0
21/06:30am 8.3 5.6 3.6 72 2.0 S 7 15 4 8 - - 0.0
21/06:00am 12.5 10.1 7.2 70 2.6 E 9 11 5 6 - - 0.0
21/05:30am 12.6 10.2 7.1 69 2.7 E 9 11 5 6 - - 0.0
21/05:00am 13.6 10.9 5.7 59 3.8 E 9 11 5 6 - - 0.0
21/04:30am 13.1 10.1 5.8 61 3.5 E 11 11 6 6 - - 0.0
21/04:00am 11.8 9.8 4.3 60 3.4 ESE 4 6 2 3 - - 0.0
21/03:30am 13.4 10.8 4.0 53 4.3 E 7 9 4 5 - - 0.0
21/03:00am 12.6 10.2 4.3 57 3.8 E 6 9 3 5 - - 0.0
21/02:30am 12.9 11.5 3.8 54 4.1 CALM 0 0 0 0 - - 0.0
21/02:00am 12.8 10.6 3.5 53 4.2 ENE 4 4 2 2 - - 0.0
21/01:30am 12.1 10.3 3.3 55 3.9 SSE 2 6 1 3 - - 0.0
21/01:00am 13.8 11.7 4.1 52 4.5 ENE 4 6 2 3 - - 0.0
21/12:30am 13.9 11.3 3.4 49 4.8 ESE 6 6 3 3 - - 0.0
21/12:00am 15.3 12.6 3.8 46 5.3 SE 7 7 4 4 - - 0.0
 
Date/Time
EDT
Temp
°C
App
Temp
°C
Dew
Point
°C
Rel
Hum
%
Delta-T
°C
Wind Press
QNH
hPa
Press
MSL
hPa
Rain since
9am
mm
Dir  Spd
km/h
Gust
km/h
Spd
kts
Gust
kts
20/11:30pm 15.9 13.2 3.7 44 5.7 SE 7 9 4 5 - - 0.0
20/11:00pm 15.9 13.3 4.0 45 5.6 SE 7 9 4 5 - - 0.0
20/10:30pm 15.8 13.1 3.6 44 5.7 SE 7 9 4 5 - - 0.0
20/10:00pm 16.3 13.6 3.7 43 5.9 SSE 7 9 4 5 - - 0.0
20/09:30pm 17.0 14.0 4.0 42 6.1 S 9 13 5 7 - - 0.0
20/09:00pm 17.2 14.1 3.5 40 6.4 S 9 11 5 6 - - 0.0
20/08:30pm 18.1 14.9 3.2 37 7.0 S 9 15 5 8 - - 0.0
20/08:00pm 19.3 15.7 3.1 34 7.6 S 11 15 6 8 - - 0.0
20/07:30pm 21.3 17.3 2.6 29 8.9 SSW 13 19 7 10 - - 0.0
20/07:00pm 22.0 17.9 2.2 27 9.4 SSW 13 17 7 9 - - 0.0
20/06:30pm 22.9 19.6 2.4 26 9.8 WSW 9 17 5 9 - - 0.0

Other Formats:

Comma delimited format used in spreadsheet applications
http://www.bom.gov.au/fwo/IDN60801/IDN60801.95705.axf

JavaScript Object Notation format (JSON) in row-major order
http://www.bom.gov.au/fwo/IDN60801/IDN60801.95705.json